Time;durP1;ratioP1;P1;durP2;ratioP2;P2;SDS_P1;SDS_P2;PMS_P1;PMS_P2;Temp;Humidity;BMP_temperature;BMP_pressure;BME280_temperature;BME280_humidity;BME280_pressure;Samples;Min_cycle;Max_cycle;Signal;HPM_P1;HPM_P2
2022/03/08 00:02:03;;;;;;;17.88;15.27;;;;;;;-3.21;63.86;96279.50;5072452;28;24422;-74
2022/03/08 00:04:29;;;;;;;18.10;16.27;;;;;;;-3.16;64.02;96286.22;5072250;28;24952;-74
2022/03/08 00:07:01;;;;;;;18.33;15.63;;;;;;;-3.12;63.14;96284.53;5072102;28;24419;-75
2022/03/08 00:09:28;;;;;;;20.05;16.13;;;;;;;-3.07;63.87;96279.47;5072062;28;25001;-74
2022/03/08 00:11:54;;;;;;;20.27;15.90;;;;;;;-3.06;63.89;96281.16;5072558;28;24425;-74
2022/03/08 00:14:21;;;;;;;16.88;15.15;;;;;;;-3.19;64.27;96283.72;5072259;28;24421;-74
2022/03/08 00:16:49;;;;;;;17.02;15.23;;;;;;;-3.25;64.85;96280.34;5071348;28;24457;-74
2022/03/08 00:19:15;;;;;;;17.38;15.20;;;;;;;-3.37;64.92;96285.41;5071806;28;24500;-73
2022/03/08 00:21:42;;;;;;;16.45;14.75;;;;;;;-3.37;64.50;96278.66;5072074;28;24410;-73
2022/03/08 00:24:09;;;;;;;19.53;16.07;;;;;;;-3.32;64.66;96283.72;5072160;28;24430;-74
2022/03/08 00:26:35;;;;;;;17.33;14.77;;;;;;;-3.30;64.59;96287.09;5071909;28;24434;-73
2022/03/08 00:29:02;;;;;;;19.07;16.40;;;;;;;-3.20;64.25;96279.47;5071750;28;24414;-74
2022/03/08 00:31:28;;;;;;;18.70;15.48;;;;;;;-3.24;65.08;96280.31;5071867;28;24414;-74
2022/03/08 00:33:56;;;;;;;17.50;15.73;;;;;;;-3.23;65.15;96286.22;5071761;28;24426;-73
2022/03/08 00:36:23;;;;;;;19.40;16.98;;;;;;;-3.42;66.12;96283.72;5071044;22;25026;-72
2022/03/08 00:38:49;;;;;;;19.05;15.05;;;;;;;-3.56;66.93;96287.09;5012013;28;24474;-73
2022/03/08 00:41:16;;;;;;;16.63;14.98;;;;;;;-3.53;67.01;96284.56;5012151;28;24424;-73
2022/03/08 00:43:43;;;;;;;18.83;15.45;;;;;;;-3.50;66.68;96282.88;5012211;28;24511;-72
2022/03/08 00:46:09;;;;;;;22.52;16.67;;;;;;;-3.50;66.06;96282.03;5011912;28;24421;-72
2022/03/08 00:48:35;;;;;;;17.92;15.25;;;;;;;-3.42;66.24;96280.34;5011751;28;24435;-72
2022/03/08 00:51:03;;;;;;;18.02;15.20;;;;;;;-3.44;66.23;96279.50;5011686;28;24440;-72
2022/03/08 00:53:30;;;;;;;18.40;16.58;;;;;;;-3.49;66.15;96279.50;5011963;28;24416;-73
2022/03/08 00:55:56;;;;;;;17.65;15.85;;;;;;;-3.57;66.68;96276.13;5011720;28;24487;-72
2022/03/08 00:58:23;;;;;;;17.48;15.40;;;;;;;-3.57;67.16;96280.34;5011513;28;24494;-72
2022/03/08 01:00:49;;;;;;;17.77;15.93;;;;;;;-3.63;67.69;96275.25;5011605;28;24451;-72
2022/03/08 01:03:16;;;;;;;17.48;15.68;;;;;;;-3.69;67.53;96278.66;5011600;28;24961;-72
2022/03/08 01:05:42;;;;;;;21.60;16.38;;;;;;;-3.65;67.34;96276.13;5011182;28;24435;-72
2022/03/08 01:08:10;;;;;;;19.33;17.08;;;;;;;-3.60;67.50;96272.75;5011468;28;24425;-72
2022/03/08 01:10:37;;;;;;;24.98;20.60;;;;;;;-3.61;67.22;96274.44;5011719;28;24420;-72
2022/03/08 01:13:04;;;;;;;27.42;22.70;;;;;;;-3.60;68.00;96277.81;5011551;28;24423;-72
2022/03/08 01:15:31;;;;;;;25.92;20.02;;;;;;;-3.70;68.09;96277.81;5011303;28;24432;-72
2022/03/08 01:17:58;;;;;;;25.00;21.23;;;;;;;-3.65;67.33;96275.28;5011031;28;24432;-72
2022/03/08 01:20:25;;;;;;;22.33;19.23;;;;;;;-3.82;68.51;96272.75;5011142;28;24814;-72
2022/03/08 01:22:52;;;;;;;46.40;22.92;;;;;;;-3.84;68.37;96278.63;5011519;28;24479;-72
2022/03/08 01:25:21;;;;;;;25.42;21.23;;;;;;;-4.03;68.94;96272.72;5011223;28;24494;-72
2022/03/08 01:27:48;;;;;;;26.83;20.02;;;;;;;-4.12;68.61;96273.50;5011085;28;24510;-72
2022/03/08 01:30:17;;;;;;;21.40;18.60;;;;;;;-4.24;69.23;96274.31;5011141;28;24978;-72
2022/03/08 01:32:44;;;;;;;22.80;18.80;;;;;;;-4.14;68.42;96271.00;5010992;28;24420;-72
2022/03/08 01:35:11;;;;;;;25.70;18.25;;;;;;;-4.21;69.02;96271.81;5016547;28;24435;-72
2022/03/08 01:37:39;;;;;;;22.58;19.33;;;;;;;-4.18;68.96;96266.78;5050882;28;24853;-72
2022/03/08 01:40:07;;;;;;;23.03;17.50;;;;;;;-4.22;68.22;96265.06;5050428;28;24587;-72
2022/03/08 01:42:36;;;;;;;23.90;18.02;;;;;;;-4.09;68.65;96268.47;5050627;28;24465;-72
2022/03/08 01:45:04;;;;;;;18.05;16.33;;;;;;;-4.03;68.26;96260.91;5050360;28;24828;-72
2022/03/08 01:47:30;;;;;;;19.48;16.92;;;;;;;-4.06;67.01;96252.47;5050741;28;24484;-72
2022/03/08 01:49:57;;;;;;;19.80;17.63;;;;;;;-3.94;67.85;96258.38;5050465;28;24441;-72
2022/03/08 01:52:25;;;;;;;24.50;18.08;;;;;;;-4.12;69.02;96255.81;5050616;28;24434;-72
2022/03/08 01:54:52;;;;;;;21.10;18.80;;;;;;;-4.22;70.13;96260.00;5050762;28;24430;-72
2022/03/08 01:57:23;;;;;;;23.67;18.73;;;;;;;-4.37;71.89;96252.41;5050418;28;24422;-72
2022/03/08 01:59:52;;;;;;;20.77;17.42;;;;;;;-4.36;71.14;96261.66;5050227;28;24447;-72
2022/03/08 02:02:19;;;;;;;18.23;15.50;;;;;;;-4.36;71.30;96241.44;5050581;28;24419;-72
2022/03/08 02:04:46;;;;;;;20.80;17.33;;;;;;;-4.41;70.71;96253.22;5050664;28;24473;-72
2022/03/08 02:07:12;;;;;;;21.23;17.13;;;;;;;-4.55;72.09;96248.13;5050335;28;24423;-72
2022/03/08 02:09:39;;;;;;;18.73;16.77;;;;;;;-4.42;70.99;96238.88;5050067;28;24956;-72
2022/03/08 02:12:06;;;;;;;17.63;15.73;;;;;;;-4.50;71.38;96238.84;5050319;28;24426;-72
2022/03/08 02:14:33;;;;;;;18.00;16.10;;;;;;;-4.55;71.98;96238.00;5050400;28;24812;-72
2022/03/08 02:17:01;;;;;;;18.27;16.47;;;;;;;-4.68;71.94;96238.78;5050331;28;24430;-72
2022/03/08 02:19:28;;;;;;;19.03;16.67;;;;;;;-4.68;71.56;96247.22;5049923;28;25005;-72
2022/03/08 02:21:56;;;;;;;19.42;16.60;;;;;;;-4.65;71.56;96242.16;5050294;28;24423;-72
2022/03/08 02:24:22;;;;;;;22.13;16.67;;;;;;;-4.66;71.38;96240.50;5050211;28;24544;-72
2022/03/08 02:26:50;;;;;;;17.17;15.38;;;;;;;-4.64;71.34;96233.75;5049900;28;24442;-72
2022/03/08 02:29:17;;;;;;;18.30;16.15;;;;;;;-4.60;71.02;96221.97;5050124;28;24536;-72
2022/03/08 02:31:44;;;;;;;16.92;14.75;;;;;;;-4.56;70.62;96226.22;5050345;28;24425;-72
2022/03/08 02:34:10;;;;;;;17.90;16.00;;;;;;;-4.57;71.01;96218.59;5050031;28;24427;-72
2022/03/08 02:36:37;;;;;;;19.45;16.25;;;;;;;-4.55;71.74;96209.38;5049803;28;24432;-72
2022/03/08 02:39:04;;;;;;;20.83;16.35;;;;;;;-4.47;70.34;96205.16;5049868;28;24426;-72
2022/03/08 02:41:31;;;;;;;22.25;18.20;;;;;;;-4.70;70.74;96208.47;5052512;28;24561;-72
2022/03/08 02:43:57;;;;;;;22.17;19.15;;;;;;;-4.63;70.50;96215.22;5058862;28;24436;-72
2022/03/08 02:46:24;;;;;;;23.77;18.20;;;;;;;-4.86;72.47;96204.19;5065370;28;24442;-72
2022/03/08 02:48:50;;;;;;;25.27;20.07;;;;;;;-4.85;73.26;96221.03;5065315;28;24513;-72
2022/03/08 02:51:17;;;;;;;21.30;18.83;;;;;;;-4.80;72.79;96200.84;5073820;28;24940;-72
2022/03/08 02:53:44;;;;;;;21.63;19.10;;;;;;;-4.77;71.96;96201.69;5073749;28;24507;-72
2022/03/08 02:56:12;;;;;;;23.13;19.88;;;;;;;-4.87;72.73;96202.50;5073694;28;24426;-72
2022/03/08 02:58:38;;;;;;;22.23;18.52;;;;;;;-4.94;73.22;96213.41;5063685;28;24470;-72
2022/03/08 03:01:05;;;;;;;22.08;18.50;;;;;;;-4.89;72.46;96209.25;5065241;28;24454;-72
2022/03/08 03:03:31;;;;;;;22.25;18.90;;;;;;;-5.30;74.80;96202.31;5073605;28;24422;-72
2022/03/08 03:05:57;;;;;;;20.37;17.97;;;;;;;-5.43;76.34;96198.00;5073284;28;24513;-72
2022/03/08 03:08:24;;;;;;;22.95;18.27;;;;;;;-5.49;76.52;96198.81;5073119;28;24452;-72
2022/03/08 03:10:50;;;;;;;20.23;17.63;;;;;;;-5.40;77.10;96196.34;5073329;28;24959;-72
2022/03/08 03:13:18;;;;;;;21.83;17.92;;;;;;;-5.35;76.74;96194.69;5063897;28;24441;-72
2022/03/08 03:15:45;;;;;;;20.35;17.15;;;;;;;-5.24;76.62;96192.22;5061038;28;24435;-72
2022/03/08 03:18:11;;;;;;;19.80;17.27;;;;;;;-5.17;75.58;96186.38;5073076;28;24450;-72
2022/03/08 03:20:38;;;;;;;21.33;17.52;;;;;;;-5.05;75.56;96189.78;5067336;28;24494;-72
2022/03/08 03:23:05;;;;;;;18.77;16.80;;;;;;;-5.11;74.29;96185.56;5064762;28;24431;-72
2022/03/08 03:25:32;;;;;;;18.23;15.90;;;;;;;-5.09;74.69;96188.09;5072458;28;24434;-72
2022/03/08 03:27:58;;;;;;;17.50;15.38;;;;;;;-5.04;74.54;96194.00;5064574;28;24438;-72
2022/03/08 03:30:26;;;;;;;18.37;15.93;;;;;;;-4.95;73.86;96183.94;5073061;28;24480;-72
2022/03/08 03:32:53;;;;;;;21.42;16.75;;;;;;;-5.00;72.98;96178.03;5072907;28;24506;-72
2022/03/08 03:35:19;;;;;;;18.80;16.90;;;;;;;-5.09;72.08;96178.81;5072338;28;25017;-72
2022/03/08 03:37:46;;;;;;;20.30;17.23;;;;;;;-5.23;73.81;96188.00;5072583;28;24477;-72
2022/03/08 03:40:14;;;;;;;18.15;16.35;;;;;;;-5.56;75.38;96183.63;5072946;28;24430;-72
2022/03/08 03:42:40;;;;;;;23.48;15.65;;;;;;;-5.55;76.15;96176.06;5064442;28;24952;-72
2022/03/08 03:45:08;;;;;;;17.40;15.68;;;;;;;-5.50;76.43;96176.94;5064337;28;24470;-72
2022/03/08 03:47:36;;;;;;;19.85;15.95;;;;;;;-5.44;75.72;96163.53;5072712;28;24982;-72
2022/03/08 03:50:03;;;;;;;20.80;15.73;;;;;;;-5.46;75.22;96166.00;5072517;28;24426;-72
2022/03/08 03:52:30;;;;;;;18.30;15.43;;;;;;;-5.51;75.12;96169.38;5071455;28;24411;-72
2022/03/08 03:54:57;;;;;;;18.00;16.13;;;;;;;-5.53;74.97;96166.81;5072615;28;24465;-72
2022/03/08 03:57:23;;;;;;;18.35;16.45;;;;;;;-5.56;75.65;96164.28;5072578;28;24426;-72
2022/03/08 03:59:49;;;;;;;17.00;15.02;;;;;;;-5.64;75.68;96164.22;5072219;28;24429;-72
2022/03/08 04:02:16;;;;;;;19.77;16.63;;;;;;;-5.56;75.68;96169.34;5072418;28;24411;-72
2022/03/08 04:04:44;;;;;;;23.58;16.45;;;;;;;-5.51;75.25;96164.31;5072391;28;24959;-72
2022/03/08 04:07:10;;;;;;;19.33;17.33;;;;;;;-5.54;74.96;96154.19;5072397;28;24419;-72
2022/03/08 04:09:37;;;;;;;17.10;15.43;;;;;;;-5.51;75.22;96161.78;5072191;28;24572;-72
2022/03/08 04:12:04;;;;;;;17.42;15.63;;;;;;;-5.74;76.19;96157.44;5056932;28;25003;-72
2022/03/08 04:14:31;;;;;;;18.77;16.42;;;;;;;-5.74;76.64;96154.94;5052488;28;25019;-72
2022/03/08 04:16:57;;;;;;;19.35;15.70;;;;;;;-5.78;77.06;96149.81;5063066;28;24968;-72
2022/03/08 04:19:24;;;;;;;17.85;15.57;;;;;;;-5.77;77.07;96154.91;5072431;28;24791;-72
2022/03/08 04:21:51;;;;;;;67.45;42.40;;;;;;;-5.73;77.41;96163.34;5072565;28;24451;-72
2022/03/08 04:24:18;;;;;;;24.87;20.03;;;;;;;-5.83;77.54;96169.97;5072693;28;24460;-72
2022/03/08 04:26:44;;;;;;;18.52;15.48;;;;;;;-6.00;78.35;96164.03;5072264;28;24823;-72
2022/03/08 04:29:11;;;;;;;17.25;15.25;;;;;;;-5.92;77.70;96175.00;5072061;28;24831;-72
2022/03/08 04:31:37;;;;;;;18.35;16.15;;;;;;;-6.16;78.65;96171.44;5072138;28;24830;-72
2022/03/08 04:34:03;;;;;;;20.30;14.77;;;;;;;-5.99;78.29;96168.22;5072146;28;24804;-73
2022/03/08 04:36:30;;;;;;;16.52;14.75;;;;;;;-5.80;78.12;96169.16;5071888;28;24984;-73
2022/03/08 04:38:58;;;;;;;17.40;15.60;;;;;;;-5.69;76.35;96165.03;5072081;28;24473;-73
2022/03/08 04:41:24;;;;;;;17.48;15.43;;;;;;;-5.69;76.34;96170.94;5071962;28;24452;-73
2022/03/08 04:43:51;;;;;;;15.68;13.98;;;;;;;-5.78;76.22;96175.94;5071817;28;24951;-73
2022/03/08 04:46:17;;;;;;;18.52;16.40;;;;;;;-6.00;78.41;96174.94;5071751;28;24438;-73
2022/03/08 04:48:44;;;;;;;17.63;15.82;;;;;;;-5.84;78.36;96169.16;5071743;28;24422;-73
2022/03/08 04:51:10;;;;;;;22.63;17.27;;;;;;;-5.71;77.17;96180.19;5071904;28;24472;-72
2022/03/08 04:53:37;;;;;;;17.02;15.05;;;;;;;-5.87;76.86;96186.78;5071704;28;24430;-73
2022/03/08 04:56:04;;;;;;;21.25;16.80;;;;;;;-5.78;76.97;96185.16;5071427;28;24823;-73
2022/03/08 04:58:31;;;;;;;23.10;19.55;;;;;;;-5.73;76.22;96184.34;5071533;28;24437;-73
2022/03/08 05:00:58;;;;;;;21.57;18.13;;;;;;;-5.71;76.35;96184.34;5071100;28;24496;-72
2022/03/08 05:03:24;;;;;;;26.85;19.02;;;;;;;-5.68;74.97;96184.38;5071015;28;24423;-72
2022/03/08 05:05:50;;;;;;;24.88;17.83;;;;;;;-5.77;75.59;96184.34;5071282;28;24422;-71
2022/03/08 05:08:17;;;;;;;20.85;17.88;;;;;;;-5.71;75.54;96185.22;5067792;28;24438;-73
2022/03/08 05:10:43;;;;;;;18.17;15.87;;;;;;;-5.83;75.26;96180.06;5050859;28;24517;-72
2022/03/08 05:13:11;;;;;;;19.67;16.52;;;;;;;-5.81;76.29;96178.41;5051294;28;24561;-72
2022/03/08 05:15:38;;;;;;;19.00;16.48;;;;;;;-5.82;76.90;96173.34;5050734;28;24427;-72
2022/03/08 05:18:05;;;;;;;19.40;16.65;;;;;;;-5.95;77.17;96170.78;5050938;28;24848;-72
2022/03/08 05:20:32;;;;;;;19.10;16.75;;;;;;;-5.91;77.53;96176.66;5051027;28;24831;-72
2022/03/08 05:23:00;;;;;;;17.88;15.82;;;;;;;-5.85;76.12;96176.72;5051077;28;24961;-72
2022/03/08 05:25:27;;;;;;;19.90;16.15;;;;;;;-6.13;78.87;96168.94;5051080;28;24497;-72
2022/03/08 05:27:53;;;;;;;23.85;17.98;;;;;;;-6.08;78.38;96166.50;5050701;28;24967;-72
2022/03/08 05:30:21;;;;;;;20.05;17.98;;;;;;;-6.15;79.72;96164.75;5050884;28;24486;-72
2022/03/08 05:32:47;;;;;;;26.05;18.92;;;;;;;-6.22;79.06;96157.97;5050890;28;24427;-72
2022/03/08 05:35:14;;;;;;;23.75;18.73;;;;;;;-6.16;79.42;96158.84;5050490;28;24444;-72
2022/03/08 05:37:40;;;;;;;24.43;18.30;;;;;;;-6.24;79.88;96149.53;5050948;28;24431;-73
2022/03/08 05:40:08;;;;;;;20.67;18.15;;;;;;;-6.31;79.98;96155.34;5052495;28;24444;-73
2022/03/08 05:42:38;;;;;;;22.33;19.08;;;;;;;-6.81;82.36;96156.56;5063016;28;24975;-73
2022/03/08 05:45:05;;;;;;;25.98;19.95;;;;;;;-6.95;84.41;96160.59;5070938;28;24449;-73
2022/03/08 05:47:33;;;;;;;22.27;18.90;;;;;;;-6.93;86.33;96162.31;5061783;28;24547;-73
2022/03/08 05:49:59;;;;;;;22.38;19.10;;;;;;;-6.83;87.97;96168.28;5049703;28;24438;-73
2022/03/08 05:52:26;;;;;;;20.50;18.27;;;;;;;-6.67;87.67;96162.59;5050088;28;24427;-73
2022/03/08 05:54:52;;;;;;;20.30;17.65;;;;;;;-6.41;86.37;96164.53;5052476;28;24424;-73
2022/03/08 05:57:18;;;;;;;24.02;18.17;;;;;;;-6.38;85.22;96164.53;5062110;28;24435;-73
2022/03/08 05:59:45;;;;;;;22.75;18.60;;;;;;;-6.12;84.40;96180.75;5040064;28;24441;-73
2022/03/08 06:02:11;;;;;;;19.38;17.08;;;;;;;-6.02;84.00;96176.59;5062817;28;24458;-72
2022/03/08 06:04:39;;;;;;;20.17;16.80;;;;;;;-5.88;82.05;96172.47;5071182;28;24411;-72
2022/03/08 06:07:06;;;;;;;23.95;18.30;;;;;;;-5.86;80.37;96165.78;5071200;28;24423;-72
2022/03/08 06:09:32;;;;;;;24.48;20.85;;;;;;;-5.63;78.58;96162.56;5070307;28;24983;-73
2022/03/08 06:12:00;;;;;;;23.30;18.83;;;;;;;-5.66;79.21;96162.53;5071124;28;24419;-73
2022/03/08 06:14:27;;;;;;;22.27;18.48;;;;;;;-5.75;79.81;96165.00;5066806;28;24423;-72
2022/03/08 06:16:54;;;;;;;24.53;19.43;;;;;;;-5.73;80.23;96163.34;5065042;28;24435;-72
2022/03/08 06:19:20;;;;;;;23.08;19.33;;;;;;;-5.73;81.97;96169.22;5074460;28;24427;-72
2022/03/08 06:21:48;;;;;;;23.67;17.67;;;;;;;-5.70;82.41;96170.94;5074782;28;24846;-70
2022/03/08 06:24:15;;;;;;;22.45;18.25;;;;;;;-5.50;79.33;96169.34;5075253;28;24425;-72
2022/03/08 06:26:42;;;;;;;29.73;18.27;;;;;;;-5.71;81.19;96172.63;5074193;28;24793;-72
2022/03/08 06:29:09;;;;;;;30.77;18.05;;;;;;;-5.68;82.88;96164.19;5073544;28;24438;-71
2022/03/08 06:31:35;;;;;;;19.95;17.85;;;;;;;-5.51;82.91;96171.88;5074190;28;24434;-71
2022/03/08 06:34:02;;;;;;;18.63;16.47;;;;;;;-5.32;81.41;96181.25;5073894;28;24968;-72
2022/03/08 06:36:28;;;;;;;22.83;17.30;;;;;;;-5.31;81.32;96185.44;5073423;28;24438;-73
2022/03/08 06:38:56;;;;;;;22.70;17.58;;;;;;;-4.94;80.28;96195.72;5072800;28;25014;-73
2022/03/08 06:41:24;;;;;;;21.65;17.55;;;;;;;-4.76;76.49;96195.81;5073633;28;24445;-73
2022/03/08 06:43:51;;;;;;;26.35;18.58;;;;;;;-4.82;77.53;96198.31;5073640;28;24474;-73
2022/03/08 06:46:17;;;;;;;22.88;20.40;;;;;;;-4.58;77.83;96205.13;5073268;28;24987;-73
2022/03/08 06:48:44;;;;;;;18.77;16.77;;;;;;;-4.32;78.17;96209.41;5072908;28;24417;-73
2022/03/08 06:51:10;;;;;;;22.33;18.10;;;;;;;-4.16;78.94;96214.47;5073348;28;24418;-73
2022/03/08 06:53:37;;;;;;;23.60;18.58;;;;;;;-3.93;79.78;96206.06;5073504;28;24430;-71
2022/03/08 06:56:05;;;;;;;23.73;21.20;;;;;;;-3.70;78.36;96212.00;5073251;28;24427;-72
2022/03/08 06:58:31;;;;;;;23.60;20.63;;;;;;;-3.45;77.00;96217.91;5072883;28;24441;-72
2022/03/08 07:00:58;;;;;;;26.83;19.40;;;;;;;-3.45;76.79;96222.09;5073389;28;24508;-73
2022/03/08 07:03:24;;;;;;;23.90;19.10;;;;;;;-3.47;77.70;96218.75;5073263;28;24484;-72
2022/03/08 07:05:50;;;;;;;23.83;19.00;;;;;;;-3.21;77.92;96214.47;5072938;28;24473;-71
2022/03/08 07:08:17;;;;;;;25.33;18.73;;;;;;;-3.15;76.89;96221.22;5072754;28;24464;-71
2022/03/08 07:10:43;;;;;;;22.75;17.77;;;;;;;-3.25;73.82;96214.47;5064639;28;24432;-72
2022/03/08 07:13:11;;;;;;;21.95;18.95;;;;;;;-3.06;76.95;96233.03;5052827;28;24495;-73
2022/03/08 07:15:38;;;;;;;20.80;17.38;;;;;;;-2.99;73.79;96227.09;5052868;28;24427;-73
2022/03/08 07:18:05;;;;;;;19.90;17.80;;;;;;;-2.74;73.82;96231.25;5052453;28;24960;-73
2022/03/08 07:20:31;;;;;;;28.70;19.25;;;;;;;-2.83;71.79;96226.19;5052389;28;24844;-72
2022/03/08 07:22:58;;;;;;;33.33;20.80;;;;;;;-3.34;73.36;96235.59;5052911;28;24961;-72
2022/03/08 07:25:24;;;;;;;29.77;19.90;;;;;;;-3.26;74.09;96246.56;5052192;28;24438;-72
2022/03/08 07:27:51;;;;;;;25.48;20.23;;;;;;;-3.20;74.35;96238.94;5052366;28;24423;-73
2022/03/08 07:30:19;;;;;;;23.23;20.65;;;;;;;-3.05;73.73;96247.38;5052829;28;24431;-74
2022/03/08 07:32:45;;;;;;;27.52;20.17;;;;;;;-2.84;75.42;96229.56;5052589;28;24825;-73
2022/03/08 07:35:11;;;;;;;25.90;21.17;;;;;;;-2.80;73.24;96230.41;5051741;28;24431;-74
2022/03/08 07:37:39;;;;;;;30.50;20.75;;;;;;;-2.62;74.03;96232.03;5052791;28;24419;-72
2022/03/08 07:40:08;;;;;;;22.60;19.98;;;;;;;-2.16;73.22;96242.78;5051720;28;24505;-72
2022/03/08 07:42:34;;;;;;;23.17;18.40;;;;;;;-2.12;70.80;96241.09;5052558;28;24489;-73
2022/03/08 07:45:00;;;;;;;20.52;17.55;;;;;;;-1.72;70.76;96239.97;5052305;28;24423;-73
2022/03/08 07:47:28;;;;;;;26.13;17.63;;;;;;;-1.35;67.87;96237.13;5052411;28;24481;-72
2022/03/08 07:49:55;;;;;;;19.02;15.27;;;;;;;-1.71;67.21;96228.97;5051842;28;25042;-72
2022/03/08 07:52:21;;;;;;;17.02;14.73;;;;;;;-1.27;68.08;96230.28;5052640;28;24420;-72
2022/03/08 07:54:48;;;;;;;19.27;15.40;;;;;;;-1.31;64.75;96227.78;5052150;28;24420;-73
2022/03/08 07:57:14;;;;;;;21.77;15.27;;;;;;;-1.24;65.20;96231.94;5051638;28;25068;-72
2022/03/08 07:59:41;;;;;;;17.77;13.05;;;;;;;-1.29;63.97;96231.16;5051615;28;24964;-73
2022/03/08 08:02:08;;;;;;;14.68;11.88;;;;;;;-1.17;63.09;96241.22;5052112;28;24454;-73
2022/03/08 08:04:37;;;;;;;14.68;10.80;;;;;;;-0.90;63.21;96239.25;5052276;28;24972;-73
2022/03/08 08:07:03;;;;;;;11.35;9.80;;;;;;;-0.31;61.06;96230.06;5052164;28;24427;-73
2022/03/08 08:09:30;;;;;;;11.95;10.00;;;;;;;-0.40;58.50;96235.28;5051313;28;24831;-73
2022/03/08 08:11:56;;;;;;;11.80;10.43;;;;;;;-0.34;58.66;96227.56;5051643;28;24423;-72
2022/03/08 08:14:23;;;;;;;11.15;9.98;;;;;;;-0.42;59.26;96225.13;5052073;28;24476;-73
2022/03/08 08:16:49;;;;;;;12.27;9.63;;;;;;;-0.31;58.62;96217.34;5051425;28;24442;-73
2022/03/08 08:19:16;;;;;;;9.68;8.68;;;;;;;0.11;58.94;96222.69;5051593;28;24446;-73
2022/03/08 08:21:44;;;;;;;12.65;8.85;;;;;;;0.60;59.42;96222.78;5033094;28;24450;-74
2022/03/08 08:24:10;;;;;;;11.50;8.70;;;;;;;1.05;56.55;96224.56;5032059;28;24423;-73
2022/03/08 08:26:37;;;;;;;11.60;9.23;;;;;;;1.02;55.42;96222.06;5060023;22;25080;-77
2022/03/08 08:29:04;;;;;;;11.55;8.98;;;;;;;1.38;54.95;96218.81;5051521;28;24419;-77
2022/03/08 08:31:32;;;;;;;12.07;9.15;;;;;;;1.23;54.05;96215.75;5051290;28;24482;-76
2022/03/08 08:33:59;;;;;;;19.75;10.07;;;;;;;1.08;55.31;96217.72;5032036;28;25044;-77
2022/03/08 08:36:25;;;;;;;14.50;11.88;;;;;;;1.59;54.57;96211.59;5047507;28;24439;-77
2022/03/08 08:38:53;;;;;;;19.97;14.33;;;;;;;1.53;53.97;96212.56;5050874;28;24480;-77
2022/03/08 08:41:20;;;;;;;14.43;9.45;;;;;;;1.43;54.97;96196.59;5051198;28;24462;-76
2022/03/08 08:43:46;;;;;;;16.98;9.65;;;;;;;1.70;55.79;96197.72;5051722;28;24431;-76
2022/03/08 08:46:13;;;;;;;9.05;7.93;;;;;;;2.14;56.25;96198.47;5036362;28;24977;-74
2022/03/08 08:48:39;;;;;;;10.25;7.97;;;;;;;2.84;56.17;96195.09;5031388;28;24808;-74
2022/03/08 08:51:06;;;;;;;12.30;9.35;;;;;;;2.24;53.39;96201.66;5031399;28;24416;-76
2022/03/08 08:53:32;;;;;;;9.15;7.55;;;;;;;2.66;56.54;96204.91;5031583;28;24411;-76
2022/03/08 08:56:00;;;;;;;13.35;9.25;;;;;;;2.87;55.06;96212.91;5031370;28;24416;-77
2022/03/08 08:58:27;;;;;;;10.38;7.97;;;;;;;3.40;53.01;96200.41;5031187;28;24478;-77
2022/03/08 09:00:53;;;;;;;9.10;7.13;;;;;;;3.53;53.48;96203.50;5031626;28;24482;-77
2022/03/08 09:03:19;;;;;;;9.38;6.95;;;;;;;3.49;51.60;96210.41;5031482;28;24533;-77
2022/03/08 09:05:47;;;;;;;9.23;7.10;;;;;;;3.60;49.97;96208.38;5031085;28;24813;-77
2022/03/08 09:08:14;;;;;;;9.38;6.55;;;;;;;3.53;49.15;96204.31;5031166;28;24424;-76
2022/03/08 09:10:41;;;;;;;9.32;6.75;;;;;;;3.67;51.98;96196.25;5031431;28;24452;-76
2022/03/08 09:13:09;;;;;;;8.85;7.22;;;;;;;3.81;50.78;96196.66;5031065;28;24428;-77
2022/03/08 09:15:36;;;;;;;7.68;6.88;;;;;;;4.08;51.29;96200.16;5031264;28;24423;-76
2022/03/08 09:18:05;;;;;;;10.40;7.47;;;;;;;3.85;49.43;96203.38;5031120;28;24510;-77
2022/03/08 09:20:32;;;;;;;9.23;6.80;;;;;;;3.81;48.97;96206.91;5031197;28;24797;-76
2022/03/08 09:22:58;;;;;;;8.43;6.75;;;;;;;3.89;49.93;96204.13;5030811;28;24444;-78
2022/03/08 09:25:25;;;;;;;7.60;6.80;;;;;;;4.00;50.08;96206.38;5030868;28;24423;-77
2022/03/08 09:27:51;;;;;;;7.45;6.75;;;;;;;4.19;48.87;96198.97;5046688;28;24442;-76
2022/03/08 09:30:20;;;;;;;8.47;7.17;;;;;;;4.27;48.50;96185.03;5051127;28;24420;-76
2022/03/08 09:32:46;;;;;;;7.60;6.77;;;;;;;4.12;48.98;96198.34;5050941;28;24422;-77
2022/03/08 09:35:13;;;;;;;8.33;6.80;;;;;;;4.36;49.87;96202.69;5050704;28;24529;-77
2022/03/08 09:37:39;;;;;;;9.95;7.65;;;;;;;4.50;50.34;96197.13;5050571;28;24434;-76
2022/03/08 09:40:07;;;;;;;8.05;7.25;;;;;;;4.54;46.72;96197.88;5050278;28;24427;-77
2022/03/08 09:42:34;;;;;;;8.15;6.63;;;;;;;4.48;46.95;96186.06;5051105;28;24516;-77
2022/03/08 09:45:00;;;;;;;9.90;7.30;;;;;;;4.64;47.81;96190.72;5050711;28;24580;-77
2022/03/08 09:47:28;;;;;;;7.22;6.53;;;;;;;4.92;47.60;96178.63;5050570;28;24439;-76
2022/03/08 09:49:55;;;;;;;9.85;6.95;;;;;;;5.12;46.83;96177.09;5049421;28;24431;-76
2022/03/08 09:52:21;;;;;;;7.78;6.15;;;;;;;5.17;47.78;96180.38;5050686;28;24427;-76
2022/03/08 09:54:48;;;;;;;9.45;5.88;;;;;;;4.89;47.92;96173.59;5050930;28;24411;-76
2022/03/08 09:57:18;;;;;;;7.50;6.28;;;;;;;4.92;49.23;96168.38;5050628;28;24481;-76
2022/03/08 09:59:45;;;;;;;8.50;6.32;;;;;;;4.45;47.25;96172.50;5050468;28;24442;-76
2022/03/08 10:02:13;;;;;;;8.17;6.17;;;;;;;4.59;48.42;96178.84;5050467;28;24498;-76
2022/03/08 10:04:41;;;;;;;8.52;6.32;;;;;;;4.95;46.21;96180.25;5050537;28;24488;-76
2022/03/08 10:07:09;;;;;;;6.93;5.65;;;;;;;5.05;47.69;96174.75;5050052;28;24435;-77
2022/03/08 10:09:36;;;;;;;7.63;5.60;;;;;;;5.24;44.69;96169.81;5050453;28;24512;-76
2022/03/08 10:12:13;;;;;;;10.98;6.38;;;;;;;5.36;44.29;96168.53;5050331;28;24417;-76
2022/03/08 10:14:40;;;;;;;6.70;5.95;;;;;;;5.43;46.91;96166.59;5050690;28;24411;-77
2022/03/08 10:17:08;;;;;;;7.32;5.82;;;;;;;5.28;44.43;96155.13;5050318;28;24423;-76
2022/03/08 10:19:45;;;;;;;14.82;6.15;;;;;;;5.49;43.84;96154.38;5049856;28;24815;-76
2022/03/08 10:22:24;;;;;;;7.20;5.43;;;;;;;5.37;43.72;96146.25;5051137;28;24891;-76
2022/03/08 10:24:51;;;;;;;6.70;5.87;;;;;;;5.34;44.10;96155.75;5048566;28;24422;-75
2022/03/08 10:27:19;;;;;;;13.85;5.55;;;;;;;5.45;43.75;96146.81;5069014;28;24430;-75
2022/03/08 10:29:49;;;;;;;9.32;4.97;;;;;;;5.61;42.89;96152.25;5069298;28;24931;-76
2022/03/08 10:32:19;;;;;;;6.40;5.18;;;;;;;5.58;42.98;96151.44;5069722;28;24429;-76
2022/03/08 10:34:51;;;;;;;6.60;5.65;;;;;;;5.71;42.47;96153.56;5051780;28;24995;-76
2022/03/08 10:37:20;;;;;;;9.85;5.63;;;;;;;5.89;42.26;96154.59;5049744;28;24438;-76
2022/03/08 10:39:51;;;;;;;10.80;5.30;;;;;;;5.75;39.69;96150.00;5049215;28;24513;-76
2022/03/08 10:42:22;;;;;;;7.45;5.15;;;;;;;5.81;38.64;96147.19;5068608;28;24451;-75
2022/03/08 10:44:49;;;;;;;5.97;5.18;;;;;;;6.16;41.03;96145.88;5069649;28;24960;-75
2022/03/08 10:47:17;;;;;;;6.85;5.40;;;;;;;6.02;37.73;96138.69;5069703;28;24425;-76
2022/03/08 10:49:53;;;;;;;6.30;5.40;;;;;;;6.27;39.44;96145.44;5069371;28;24427;-75
2022/03/08 10:52:27;;;;;;;7.07;5.40;;;;;;;5.93;40.51;96139.06;5069952;28;24464;-76
2022/03/08 10:54:53;;;;;;;6.20;4.97;;;;;;;6.22;39.93;96139.63;5069667;28;24510;-76
2022/03/08 11:11:42;;;;;;;5.28;4.78;;;;;;;6.62;38.50;96132.88;4924370;23;24522;-73
2022/03/08 11:14:08;;;;;;;8.52;5.50;;;;;;;6.75;38.21;96123.75;5013219;28;24428;-73
2022/03/08 11:16:35;;;;;;;5.63;5.13;;;;;;;6.83;38.62;96118.28;5013464;28;24455;-72
2022/03/08 11:19:02;;;;;;;7.82;5.30;;;;;;;6.97;40.62;96127.09;5012559;28;24428;-73
2022/03/08 11:21:31;;;;;;;7.88;5.93;;;;;;;6.89;37.35;96118.84;5013067;28;24433;-74
2022/03/08 11:23:59;;;;;;;7.05;5.45;;;;;;;6.95;40.12;96128.88;5012950;28;24531;-74
2022/03/08 11:26:26;;;;;;;7.43;5.40;;;;;;;6.81;38.19;96115.75;5012590;28;24516;-73
2022/03/08 11:28:54;;;;;;;7.63;5.40;;;;;;;6.50;37.17;96129.91;5012790;28;24423;-74
2022/03/08 11:31:25;;;;;;;6.80;5.00;;;;;;;6.59;39.83;96113.25;5016438;28;24984;-75
2022/03/08 11:34:00;;;;;;;5.72;4.88;;;;;;;6.68;39.15;96123.16;5033355;28;24428;-75
2022/03/08 11:36:36;;;;;;;6.32;4.97;;;;;;;6.48;37.13;96118.00;5033130;28;24424;-72
2022/03/08 11:39:23;;;;;;;6.95;5.57;;;;;;;6.42;37.97;96116.53;5032762;28;24489;-72